Time;durP1;ratioP1;P1;durP2;ratioP2;P2;SDS_P1;SDS_P2;PMS_P1;PMS_P2;Temp;Humidity;BMP_temperature;BMP_pressure;BME280_temperature;BME280_humidity;BME280_pressure;Samples;Min_cycle;Max_cycle;Signal;HPM_P1;HPM_P2
2021/08/22 00:00:14;;;;;;;3.60;2.88;;;19.50;86.60;;;;;;5043874;28;20052;-64
2021/08/22 00:02:40;;;;;;;4.00;2.85;;;19.50;86.70;;;;;;5046093;28;20025;-64
2021/08/22 00:05:07;;;;;;;3.67;2.90;;;19.50;86.90;;;;;;5034832;28;20433;-64
2021/08/22 00:07:32;;;;;;;4.78;2.70;;;19.50;87.10;;;;;;5047979;28;20025;-64
2021/08/22 00:09:58;;;;;;;4.95;2.92;;;19.40;87.20;;;;;;5051865;28;20018;-64
2021/08/22 00:12:23;;;;;;;4.55;2.47;;;19.40;87.30;;;;;;5053684;28;20049;-64
2021/08/22 00:14:49;;;;;;;4.68;2.75;;;19.40;87.90;;;;;;5053878;28;20033;-64
2021/08/22 00:17:15;;;;;;;3.88;2.67;;;19.40;87.60;;;;;;5047600;28;20029;-64
2021/08/22 00:19:41;;;;;;;5.63;2.97;;;19.30;87.50;;;;;;5039582;28;20037;-64
2021/08/22 00:22:06;;;;;;;4.25;2.83;;;19.30;87.50;;;;;;5043371;28;20033;-65
2021/08/22 00:24:32;;;;;;;3.97;2.67;;;19.30;87.60;;;;;;5053666;28;20064;-65
2021/08/22 00:26:58;;;;;;;5.43;2.63;;;19.30;87.70;;;;;;5051676;28;20033;-64
2021/08/22 00:29:23;;;;;;;4.38;2.67;;;19.30;87.70;;;;;;5053538;28;20032;-64
2021/08/22 00:31:49;;;;;;;5.57;2.80;;;19.20;87.70;;;;;;5053271;28;20025;-64
2021/08/22 00:34:14;;;;;;;5.68;2.83;;;19.20;88.30;;;;;;5045257;28;20410;-64
2021/08/22 00:36:39;;;;;;;3.58;2.90;;;19.20;87.90;;;;;;5049408;28;20115;-64
2021/08/22 00:39:05;;;;;;;5.90;2.90;;;19.10;88.00;;;;;;5043074;28;20048;-64
2021/08/22 00:41:32;;;;;;;5.07;2.70;;;19.10;88.10;;;;;;5053994;28;20090;-64
2021/08/22 00:43:57;;;;;;;4.28;2.67;;;19.10;88.20;;;;;;5047956;28;20037;-66
2021/08/22 00:46:23;;;;;;;6.50;2.90;;;19.10;88.20;;;;;;5033954;28;20025;-65
2021/08/22 00:48:49;;;;;;;5.18;3.03;;;19.10;88.20;;;;;;5047066;28;20421;-65
2021/08/22 00:51:18;;;;;;;3.83;2.83;;;19.10;88.40;;;;;;5033384;28;20053;-65
2021/08/22 00:53:47;;;;;;;5.18;3.03;;;19.10;88.40;;;;;;5050364;28;20583;-65
2021/08/22 00:56:16;;;;;;;4.70;2.47;;;19.10;88.30;;;;;;5051414;28;20481;-65
2021/08/22 00:58:42;;;;;;;4.18;2.88;;;19.10;88.40;;;;;;5052499;28;20033;-66
2021/08/22 01:01:16;;;;;;;4.55;3.40;;;19.10;88.40;;;;;;5051020;28;20043;-66
2021/08/22 01:04:07;;;;;;;3.58;2.60;;;19.00;88.50;;;;;;5048317;28;20032;-65
2021/08/22 01:06:52;;;;;;;3.55;2.50;;;19.00;88.40;;;;;;5041872;28;20035;-65
2021/08/22 01:09:27;;;;;;;5.78;3.15;;;19.00;88.60;;;;;;5033503;28;20037;-65
2021/08/22 01:11:53;;;;;;;5.05;2.85;;;19.00;88.60;;;;;;5035414;28;20032;-64
2021/08/22 01:14:25;;;;;;;4.28;2.90;;;19.00;88.80;;;;;;5048685;28;20033;-64
2021/08/22 01:16:54;;;;;;;3.90;2.60;;;19.00;88.90;;;;;;5038336;28;20043;-64
2021/08/22 01:19:41;;;;;;;5.38;3.00;;;18.90;88.80;;;;;;5052768;28;20094;-65
2021/08/22 01:22:08;;;;;;;4.40;3.05;;;18.90;89.00;;;;;;5052465;28;20087;-65
2021/08/22 01:24:38;;;;;;;4.53;2.65;;;18.90;89.10;;;;;;5047552;28;20037;-65
2021/08/22 01:27:06;;;;;;;3.72;2.58;;;18.90;89.30;;;;;;5035991;28;20492;-65
2021/08/22 01:29:50;;;;;;;4.90;3.15;;;18.90;89.30;;;;;;5044162;28;20032;-65
2021/08/22 01:32:15;;;;;;;3.87;2.83;;;18.80;89.20;;;;;;5050753;28;20033;-65
2021/08/22 01:34:43;;;;;;;4.20;2.63;;;18.80;89.10;;;;;;5052918;28;20473;-65
2021/08/22 01:37:09;;;;;;;4.63;3.40;;;18.80;89.20;;;;;;5033375;28;20423;-65
2021/08/22 01:39:36;;;;;;;3.00;2.38;;;18.80;89.30;;;;;;5052974;28;20079;-65
2021/08/22 01:42:04;;;;;;;3.95;2.72;;;18.70;89.40;;;;;;5048685;28;20056;-65
2021/08/22 01:44:30;;;;;;;3.97;3.25;;;18.80;89.60;;;;;;5032899;28;20060;-65
2021/08/22 01:46:56;;;;;;;5.13;2.88;;;18.80;89.70;;;;;;5033549;28;20033;-65
2021/08/22 01:49:23;;;;;;;4.10;2.63;;;18.70;89.70;;;;;;5051062;28;20035;-65
2021/08/22 01:51:49;;;;;;;5.32;3.08;;;18.70;89.80;;;;;;5035062;28;20171;-65
2021/08/22 01:54:14;;;;;;;4.22;2.92;;;18.70;90.00;;;;;;5039537;28;20107;-65
2021/08/22 01:56:41;;;;;;;5.30;3.38;;;18.70;90.00;;;;;;5034873;28;20037;-65
2021/08/22 01:59:07;;;;;;;5.63;3.60;;;18.70;90.00;;;;;;5050757;28;20380;-64
2021/08/22 02:01:35;;;;;;;4.85;3.65;;;18.70;89.90;;;;;;5051498;28;20049;-64
2021/08/22 02:04:15;;;;;;;4.93;3.15;;;18.70;90.00;;;;;;5032915;28;20033;-64
2021/08/22 02:06:54;;;;;;;7.03;2.83;;;18.70;90.00;;;;;;5043151;28;20367;-64
2021/08/22 02:09:41;;;;;;;4.43;3.15;;;18.70;90.20;;;;;;5047263;28;20034;-64
2021/08/22 02:12:15;;;;;;;5.57;3.20;;;18.70;90.00;;;;;;5042458;28;20029;-64
2021/08/22 02:14:45;;;;;;;4.88;2.90;;;18.60;90.00;;;;;;5014672;28;20036;-64
2021/08/22 02:17:12;;;;;;;4.93;3.13;;;18.60;90.00;;;;;;5022780;28;20484;-64
2021/08/22 02:19:39;;;;;;;5.30;3.47;;;18.60;90.00;;;;;;5051489;28;20107;-65
2021/08/22 02:22:05;;;;;;;5.22;3.10;;;18.60;90.00;;;;;;5049928;28;20420;-65
2021/08/22 02:24:30;;;;;;;4.55;2.90;;;18.60;90.10;;;;;;5051818;28;20116;-65
2021/08/22 02:26:56;;;;;;;4.32;2.85;;;18.60;90.10;;;;;;5040332;28;20112;-65
2021/08/22 02:29:21;;;;;;;6.05;3.00;;;18.60;90.10;;;;;;5031478;28;20056;-65
2021/08/22 02:31:47;;;;;;;4.40;2.90;;;18.60;90.10;;;;;;5049652;28;20033;-65
2021/08/22 02:34:12;;;;;;;4.28;2.80;;;18.60;90.10;;;;;;5051896;28;20119;-65
2021/08/22 02:36:38;;;;;;;3.33;2.75;;;18.70;90.20;;;;;;5049576;28;20039;-65
2021/08/22 02:39:04;;;;;;;5.05;2.92;;;18.60;90.10;;;;;;5051562;28;20029;-65
2021/08/22 02:41:29;;;;;;;14.30;2.97;;;18.60;90.10;;;;;;5050453;28;20029;-65
2021/08/22 02:43:55;;;;;;;4.43;2.60;;;18.60;90.20;;;;;;5051353;28;20020;-65
2021/08/22 02:46:20;;;;;;;5.22;3.15;;;18.60;90.20;;;;;;5036717;28;20112;-65
2021/08/22 02:48:46;;;;;;;4.70;2.88;;;18.60;90.10;;;;;;5014077;28;20021;-65
2021/08/22 02:51:12;;;;;;;5.93;3.20;;;18.60;90.10;;;;;;5032210;28;20045;-65
2021/08/22 02:53:37;;;;;;;3.53;2.58;;;18.60;90.10;;;;;;5013934;28;20034;-65
2021/08/22 02:56:03;;;;;;;7.03;2.85;;;18.60;90.20;;;;;;5041841;28;20039;-65
2021/08/22 02:58:28;;;;;;;3.55;3.03;;;18.60;90.20;;;;;;5033505;28;20401;-65
2021/08/22 03:00:54;;;;;;;3.90;2.65;;;18.60;90.10;;;;;;5048656;28;20099;-65
2021/08/22 03:03:19;;;;;;;3.85;2.80;;;18.60;90.10;;;;;;5049938;28;20135;-65
2021/08/22 03:05:45;;;;;;;3.88;2.55;;;18.60;90.10;;;;;;5043365;28;20026;-65
2021/08/22 03:08:10;;;;;;;4.20;2.90;;;18.60;90.10;;;;;;5051123;28;20718;-65
2021/08/22 03:10:36;;;;;;;4.30;3.10;;;18.60;90.10;;;;;;5044059;28;20026;-65
2021/08/22 03:13:02;;;;;;;3.38;2.80;;;18.60;90.10;;;;;;5051318;28;20389;-65
2021/08/22 03:15:27;;;;;;;4.65;2.85;;;18.60;90.10;;;;;;5046226;28;20025;-65
2021/08/22 03:17:53;;;;;;;3.85;2.70;;;18.60;90.10;;;;;;5042510;28;20040;-65
2021/08/22 03:20:18;;;;;;;4.78;2.90;;;18.60;90.20;;;;;;5048527;28;20025;-65
2021/08/22 03:22:44;;;;;;;3.55;2.67;;;18.60;90.10;;;;;;5051476;28;20025;-65
2021/08/22 03:25:11;;;;;;;3.72;2.70;;;18.60;90.40;;;;;;5049424;28;20024;-65
2021/08/22 03:27:37;;;;;;;3.47;2.63;;;18.60;90.20;;;;;;5031293;28;20025;-65
2021/08/22 03:30:04;;;;;;;4.97;2.60;;;18.60;90.20;;;;;;5033978;28;20102;-65
2021/08/22 03:32:30;;;;;;;4.93;2.70;;;18.60;90.20;;;;;;5048582;28;20536;-65
2021/08/22 03:34:56;;;;;;;3.15;2.35;;;18.60;90.20;;;;;;5050445;28;20021;-65
2021/08/22 03:37:22;;;;;;;4.05;2.80;;;18.60;90.20;;;;;;5033400;28;20296;-65
2021/08/22 03:39:47;;;;;;;4.63;3.30;;;18.60;90.30;;;;;;5044143;28;20047;-65
2021/08/22 03:42:13;;;;;;;4.45;3.00;;;18.60;90.20;;;;;;5038217;28;20392;-65
2021/08/22 03:44:39;;;;;;;3.63;2.80;;;18.60;90.20;;;;;;5030779;28;20030;-65
2021/08/22 03:47:04;;;;;;;4.40;3.03;;;18.60;90.20;;;;;;5050430;28;20087;-65
2021/08/22 03:49:30;;;;;;;5.72;3.22;;;18.60;90.20;;;;;;5051246;28;20389;-65
2021/08/22 03:51:55;;;;;;;3.88;2.83;;;18.60;90.20;;;;;;5049788;28;20045;-65
2021/08/22 03:54:20;;;;;;;4.47;2.65;;;18.50;90.30;;;;;;5050503;28;20100;-65
2021/08/22 03:56:46;;;;;;;5.63;2.90;;;18.50;90.30;;;;;;5031852;28;20026;-65
2021/08/22 03:59:11;;;;;;;3.83;2.80;;;18.50;90.30;;;;;;5034375;28;20041;-65
2021/08/22 04:01:37;;;;;;;3.70;2.72;;;18.50;90.30;;;;;;5046846;28;20049;-65
2021/08/22 04:04:04;;;;;;;4.18;2.50;;;18.50;90.40;;;;;;5049504;28;20112;-65
2021/08/22 04:06:30;;;;;;;5.78;2.50;;;18.50;90.40;;;;;;5049448;28;20036;-65
2021/08/22 04:08:56;;;;;;;4.05;2.70;;;18.50;90.40;;;;;;5049473;28;20033;-65
2021/08/22 04:11:22;;;;;;;5.38;2.70;;;18.50;90.40;;;;;;5049475;28;20033;-65
2021/08/22 04:13:47;;;;;;;4.55;3.00;;;18.50;90.50;;;;;;5044290;28;20109;-65
2021/08/22 04:16:13;;;;;;;9.23;3.30;;;18.50;90.50;;;;;;5014063;28;20033;-65
2021/08/22 04:18:38;;;;;;;4.05;2.70;;;18.50;90.50;;;;;;5033152;28;20029;-65
2021/08/22 04:21:05;;;;;;;3.97;2.80;;;18.40;90.50;;;;;;5046296;28;20510;-65
2021/08/22 04:23:32;;;;;;;3.88;2.58;;;18.40;90.50;;;;;;5051785;28;20535;-65
2021/08/22 04:25:57;;;;;;;4.45;3.08;;;18.40;90.50;;;;;;5044526;28;20052;-65
2021/08/22 04:28:23;;;;;;;4.10;2.72;;;18.40;90.50;;;;;;5049725;28;20615;-65
2021/08/22 04:30:48;;;;;;;5.30;2.70;;;18.40;90.40;;;;;;5050660;28;20013;-65
2021/08/22 04:33:14;;;;;;;5.50;2.90;;;18.40;90.40;;;;;;5054174;28;20055;-65
2021/08/22 04:35:39;;;;;;;3.58;2.85;;;18.50;90.40;;;;;;5047788;28;20461;-65
2021/08/22 04:38:05;;;;;;;3.72;2.58;;;18.50;90.50;;;;;;5054116;28;20033;-65
2021/08/22 04:40:30;;;;;;;3.90;2.70;;;18.50;90.40;;;;;;5041968;28;20025;-65
2021/08/22 04:42:56;;;;;;;3.58;2.58;;;18.50;90.40;;;;;;5054226;28;20126;-65
2021/08/22 04:45:22;;;;;;;3.97;2.92;;;18.50;90.30;;;;;;5042345;28;20025;-65
2021/08/22 04:47:48;;;;;;;3.15;2.55;;;18.50;90.30;;;;;;5034301;28;20465;-65
2021/08/22 04:50:13;;;;;;;3.67;2.63;;;18.50;90.20;;;;;;5044812;28;20040;-66
2021/08/22 04:52:39;;;;;;;3.25;2.42;;;18.50;90.30;;;;;;5054107;28;20507;-67
2021/08/22 04:55:05;;;;;;;4.38;2.60;;;18.50;90.20;;;;;;5051240;28;20036;-65
2021/08/22 04:57:32;;;;;;;5.72;2.80;;;18.50;90.10;;;;;;5042875;28;20029;-65
2021/08/22 04:59:57;;;;;;;3.80;2.30;;;18.60;90.10;;;;;;5036890;28;20040;-65
2021/08/22 05:02:23;;;;;;;4.07;2.53;;;18.60;90.00;;;;;;5053319;28;20385;-65
2021/08/22 05:04:48;;;;;;;3.53;2.63;;;18.60;90.10;;;;;;5046500;28;20160;-65
2021/08/22 05:07:14;;;;;;;4.47;2.50;;;18.50;90.10;;;;;;5018519;28;20504;-65
2021/08/22 05:09:39;;;;;;;2.70;2.15;;;18.60;90.00;;;;;;5033848;28;20033;-65
2021/08/22 05:12:05;;;;;;;4.20;2.30;;;18.60;90.00;;;;;;5053484;28;20036;-65
2021/08/22 05:14:34;;;;;;;3.08;2.33;;;18.60;89.90;;;;;;5062505;28;20544;-65
2021/08/22 05:17:00;;;;;;;4.68;2.60;;;18.50;89.80;;;;;;5052384;28;20029;-65
2021/08/22 05:19:25;;;;;;;3.03;2.50;;;18.60;89.80;;;;;;5049664;28;20068;-65
2021/08/22 05:21:51;;;;;;;4.05;2.85;;;18.60;89.70;;;;;;5051689;28;20057;-65
2021/08/22 05:24:16;;;;;;;5.47;3.30;;;18.60;89.70;;;;;;5048261;28;20155;-65
2021/08/22 05:26:42;;;;;;;4.07;2.70;;;18.60;89.60;;;;;;5052027;28;20040;-65
2021/08/22 05:29:07;;;;;;;4.32;2.80;;;18.60;89.50;;;;;;5051818;28;20064;-65
2021/08/22 05:31:33;;;;;;;4.45;2.17;;;18.60;89.40;;;;;;5052550;28;20025;-64
2021/08/22 05:33:58;;;;;;;2.97;2.33;;;18.60;89.20;;;;;;5052654;28;20025;-65
2021/08/22 05:36:24;;;;;;;5.35;2.28;;;18.60;89.20;;;;;;5051500;28;20423;-65
2021/08/22 05:38:52;;;;;;;5.97;2.40;;;18.70;89.20;;;;;;5052237;28;20386;-64
2021/08/22 05:41:18;;;;;;;4.90;3.17;;;18.70;89.10;;;;;;5052171;28;20033;-65
2021/08/22 05:43:43;;;;;;;4.40;2.22;;;18.80;88.80;;;;;;5034651;28;20803;-65
2021/08/22 05:46:10;;;;;;;3.85;2.20;;;18.90;89.00;;;;;;5051296;28;20037;-64
2021/08/22 05:48:35;;;;;;;3.30;2.50;;;18.90;89.00;;;;;;5051753;28;20040;-64
2021/08/22 05:51:01;;;;;;;3.42;2.50;;;19.00;88.90;;;;;;5040702;28;20050;-64
2021/08/22 05:53:28;;;;;;;3.80;2.17;;;19.10;89.00;;;;;;5043610;28;20087;-64
2021/08/22 05:55:58;;;;;;;4.22;1.92;;;19.10;87.90;;;;;;5035115;28;20038;-64
2021/08/22 05:58:24;;;;;;;4.93;2.42;;;19.10;87.60;;;;;;5045645;28;20454;-64
2021/08/22 06:00:50;;;;;;;6.20;2.38;;;19.20;87.20;;;;;;5026204;28;20032;-64
2021/08/22 06:03:15;;;;;;;3.67;2.15;;;19.20;87.00;;;;;;5051097;28;20025;-64
2021/08/22 06:05:41;;;;;;;3.40;2.22;;;19.20;86.90;;;;;;5044686;28;20084;-64
2021/08/22 06:08:06;;;;;;;2.75;2.20;;;19.30;86.60;;;;;;5036146;28;20075;-63
2021/08/22 06:10:32;;;;;;;4.30;2.38;;;19.30;86.20;;;;;;5044824;28;20056;-64
2021/08/22 06:12:57;;;;;;;3.85;2.47;;;19.30;85.90;;;;;;5043139;28;20025;-64
2021/08/22 06:15:23;;;;;;;4.20;2.63;;;19.30;86.00;;;;;;5044283;28;20108;-66
2021/08/22 06:17:48;;;;;;;2.88;2.08;;;19.40;86.00;;;;;;5043044;28;20433;-67
2021/08/22 06:20:14;;;;;;;4.95;2.45;;;19.40;85.90;;;;;;5041125;28;20029;-66
2021/08/22 06:22:42;;;;;;;3.00;2.10;;;19.50;86.10;;;;;;5040140;28;20168;-67
2021/08/22 06:25:08;;;;;;;2.70;2.10;;;19.50;85.70;;;;;;5043098;28;20040;-67
2021/08/22 06:27:34;;;;;;;3.55;2.42;;;19.60;86.20;;;;;;5032484;28;20033;-66
2021/08/22 06:30:00;;;;;;;3.33;2.30;;;19.70;85.50;;;;;;5038283;28;20013;-66
2021/08/22 06:32:26;;;;;;;3.15;2.03;;;19.70;85.50;;;;;;5041578;28;20063;-67
2021/08/22 06:34:52;;;;;;;3.03;2.15;;;19.80;85.30;;;;;;5045685;28;20067;-67
2021/08/22 06:37:17;;;;;;;2.70;1.95;;;19.90;84.40;;;;;;5038368;28;20120;-66
2021/08/22 06:39:43;;;;;;;4.13;2.30;;;19.90;84.40;;;;;;5043096;28;20116;-67
2021/08/22 06:42:09;;;;;;;3.65;2.08;;;20.00;84.10;;;;;;5045273;28;20067;-67
2021/08/22 06:44:38;;;;;;;3.05;2.17;;;20.00;83.60;;;;;;5041446;28;20112;-67
2021/08/22 06:47:04;;;;;;;4.00;1.90;;;20.00;82.90;;;;;;5049463;28;20090;-65
2021/08/22 06:49:30;;;;;;;2.75;1.85;;;20.00;82.80;;;;;;5043795;28;20481;-66
2021/08/22 06:51:55;;;;;;;2.80;1.92;;;20.00;82.70;;;;;;5043586;28;20192;-66
2021/08/22 06:54:20;;;;;;;5.00;2.20;;;20.10;82.80;;;;;;5046156;28;20433;-66
2021/08/22 06:56:46;;;;;;;3.33;1.75;;;20.10;82.30;;;;;;5045876;28;20541;-66
2021/08/22 06:59:11;;;;;;;3.45;2.13;;;20.10;82.20;;;;;;5042619;28;20087;-66
2021/08/22 07:01:37;;;;;;;2.92;1.98;;;20.10;81.80;;;;;;5044170;28;20052;-66
2021/08/22 07:04:03;;;;;;;2.90;1.88;;;20.20;81.90;;;;;;5042010;28;20060;-66
2021/08/22 07:06:28;;;;;;;3.22;2.08;;;20.30;81.90;;;;;;5042412;28;20025;-66
2021/08/22 07:08:54;;;;;;;2.85;2.13;;;20.30;82.00;;;;;;5045792;28;20026;-66
2021/08/22 07:11:19;;;;;;;4.10;2.33;;;20.40;81.40;;;;;;5043651;28;20025;-66
2021/08/22 07:13:45;;;;;;;3.47;2.15;;;20.40;81.00;;;;;;5036461;28;20153;-66
2021/08/22 07:16:10;;;;;;;4.38;2.20;;;20.40;80.60;;;;;;5041270;28;20029;-66
2021/08/22 07:18:36;;;;;;;3.13;2.10;;;20.40;80.20;;;;;;5046832;28;20593;-66
2021/08/22 07:21:03;;;;;;;3.35;2.20;;;20.50;80.30;;;;;;5041395;28;20036;-66
2021/08/22 07:23:29;;;;;;;3.63;1.80;;;20.50;80.30;;;;;;5049289;28;20033;-66
2021/08/22 07:25:54;;;;;;;3.70;2.30;;;20.60;80.50;;;;;;5047351;28;20051;-66
2021/08/22 07:28:20;;;;;;;4.18;2.10;;;20.70;80.20;;;;;;5038451;28;20042;-67
2021/08/22 07:30:45;;;;;;;4.97;2.17;;;20.70;80.30;;;;;;5045065;28;20048;-66
2021/08/22 07:33:11;;;;;;;4.78;1.95;;;20.80;80.20;;;;;;5044200;28;20025;-66
2021/08/22 07:35:36;;;;;;;3.53;2.47;;;20.90;80.30;;;;;;5047185;28;20029;-66
2021/08/22 07:38:02;;;;;;;5.13;2.17;;;21.00;79.90;;;;;;5037393;28;20143;-66
2021/08/22 07:40:28;;;;;;;4.45;2.30;;;21.00;80.10;;;;;;5041709;28;20079;-66
2021/08/22 07:42:53;;;;;;;3.50;2.30;;;21.20;79.70;;;;;;5041954;28;20029;-66
2021/08/22 07:45:19;;;;;;;2.50;1.83;;;21.20;79.70;;;;;;5040139;28;20051;-66
2021/08/22 07:47:44;;;;;;;3.08;2.10;;;21.30;79.80;;;;;;5044176;28;20071;-66
2021/08/22 07:50:10;;;;;;;7.55;2.15;;;21.40;79.70;;;;;;5028413;28;20041;-66
2021/08/22 07:52:36;;;;;;;3.08;2.08;;;21.50;79.40;;;;;;5024938;28;20029;-66
2021/08/22 07:55:03;;;;;;;3.42;2.20;;;21.50;78.90;;;;;;5041626;28;20113;-66
2021/08/22 07:57:30;;;;;;;3.40;2.42;;;21.50;79.00;;;;;;5045469;28;20075;-66
2021/08/22 07:59:56;;;;;;;3.50;2.58;;;21.50;78.50;;;;;;5052328;28;20067;-65
2021/08/22 08:02:21;;;;;;;4.80;2.30;;;21.50;78.20;;;;;;5042481;28;20057;-65
2021/08/22 08:04:47;;;;;;;3.50;2.45;;;21.50;78.20;;;;;;5040722;28;20056;-66
2021/08/22 08:07:12;;;;;;;4.55;2.78;;;21.60;78.70;;;;;;5045276;28;20103;-66
2021/08/22 08:09:38;;;;;;;3.10;2.28;;;21.60;78.40;;;;;;5038100;28;20112;-65
2021/08/22 08:12:04;;;;;;;3.72;2.42;;;21.60;78.50;;;;;;5044047;28;20111;-66
2021/08/22 08:14:30;;;;;;;3.35;2.30;;;21.60;78.90;;;;;;5049215;28;20116;-65
2021/08/22 08:16:55;;;;;;;3.60;2.38;;;21.70;78.90;;;;;;5029421;28;20464;-65
2021/08/22 08:19:20;;;;;;;4.80;2.55;;;21.80;78.80;;;;;;5051368;28;20044;-65
2021/08/22 08:21:46;;;;;;;3.70;2.40;;;21.80;78.50;;;;;;5045250;28;20021;-65
2021/08/22 08:24:11;;;;;;;4.18;3.10;;;21.90;78.00;;;;;;5048719;28;20099;-65
2021/08/22 08:26:37;;;;;;;4.38;2.70;;;21.90;77.50;;;;;;5040640;28;20067;-65
2021/08/22 08:29:03;;;;;;;4.63;2.53;;;21.90;77.60;;;;;;5051032;28;20428;-65
2021/08/22 08:31:28;;;;;;;5.03;2.60;;;21.90;78.00;;;;;;5044255;28;20021;-66
2021/08/22 08:33:54;;;;;;;3.58;2.72;;;22.00;77.90;;;;;;5041603;28;20021;-66
2021/08/22 08:36:19;;;;;;;3.63;3.03;;;22.00;77.80;;;;;;5050021;28;20033;-65
2021/08/22 08:38:45;;;;;;;3.67;2.90;;;22.00;77.40;;;;;;5044324;28;20033;-66
2021/08/22 08:41:10;;;;;;;5.85;2.75;;;22.10;77.70;;;;;;5043143;28;20054;-65
2021/08/22 08:43:36;;;;;;;4.20;2.75;;;22.10;77.90;;;;;;5049595;28;20122;-66
2021/08/22 08:46:09;;;;;;;5.28;2.58;;;22.20;77.80;;;;;;5032788;28;20021;-65
2021/08/22 08:48:36;;;;;;;4.80;2.60;;;22.30;78.30;;;;;;5046956;28;20025;-65
2021/08/22 08:51:29;;;;;;;3.55;2.72;;;22.50;78.20;;;;;;5033561;28;20132;-65
2021/08/22 08:54:00;;;;;;;4.10;3.03;;;22.60;78.20;;;;;;5033760;28;20037;-65
2021/08/22 08:56:28;;;;;;;4.55;3.00;;;22.70;77.70;;;;;;5054506;28;20025;-65
2021/08/22 08:58:53;;;;;;;5.85;2.80;;;22.80;77.20;;;;;;5035824;28;20433;-65
2021/08/22 09:01:18;;;;;;;5.05;3.85;;;22.90;77.20;;;;;;5043794;28;20047;-65
2021/08/22 09:04:29;;;;;;;4.57;3.25;;;22.90;76.90;;;;;;5052969;28;20021;-66
2021/08/22 09:07:33;;;;;;;4.18;2.78;;;23.00;77.10;;;;;;5051089;28;20029;-65
2021/08/22 09:10:29;;;;;;;5.25;3.25;;;23.00;76.80;;;;;;5053070;28;20025;-64
2021/08/22 09:13:33;;;;;;;4.72;2.80;;;23.00;76.60;;;;;;5042957;28;20025;-64
2021/08/22 09:16:36;;;;;;;5.77;3.00;;;22.90;76.40;;;;;;5024920;28;20037;-65
2021/08/22 09:19:49;;;;;;;4.43;3.45;;;23.00;76.20;;;;;;5052931;28;20382;-65
2021/08/22 09:22:36;;;;;;;4.07;3.00;;;22.90;76.20;;;;;;5047760;28;20045;-65
2021/08/22 09:25:55;;;;;;;4.72;3.25;;;23.00;76.30;;;;;;5032461;28;20057;-65
2021/08/22 09:28:40;;;;;;;6.93;3.67;;;23.10;76.40;;;;;;5036192;28;20039;-65
2021/08/22 09:31:36;;;;;;;5.00;3.27;;;23.10;75.50;;;;;;5044122;28;20119;-65
2021/08/22 09:34:51;;;;;;;3.88;2.95;;;23.10;76.00;;;;;;5037951;28;20371;-65
2021/08/22 09:37:29;;;;;;;4.68;2.67;;;23.10;75.90;;;;;;5045078;28;20056;-65
2021/08/22 09:40:44;;;;;;;5.60;2.85;;;23.20;76.60;;;;;;5048699;28;20332;-64
2021/08/22 09:43:31;;;;;;;4.90;3.05;;;23.30;76.10;;;;;;5014688;28;20100;-64
2021/08/22 09:46:34;;;;;;;4.47;2.72;;;23.50;76.50;;;;;;5039607;28;20302;-64
2021/08/22 09:49:15;;;;;;;4.70;3.22;;;23.70;75.50;;;;;;5042595;28;20047;-64
2021/08/22 09:52:19;;;;;;;6.75;3.00;;;23.80;75.90;;;;;;5036578;28;20455;-64
2021/08/22 09:55:03;;;;;;;4.50;3.25;;;23.80;74.60;;;;;;5041421;28;20033;-64
2021/08/22 09:57:47;;;;;;;5.75;3.95;;;23.90;74.50;;;;;;5035253;28;20056;-65
2021/08/22 10:00:40;;;;;;;6.15;3.10;;;24.00;74.40;;;;;;5034091;28;20044;-65
2021/08/22 10:03:42;;;;;;;3.88;2.75;;;24.00;73.40;;;;;;5047948;28;20396;-64
2021/08/22 10:06:27;;;;;;;5.00;2.75;;;24.10;73.50;;;;;;5041472;28;20036;-64
2021/08/22 10:09:03;;;;;;;5.93;3.95;;;24.10;73.30;;;;;;5038640;28;20108;-64
2021/08/22 10:11:38;;;;;;;4.00;2.90;;;24.10;73.00;;;;;;5046191;28;20449;-64
2021/08/22 10:14:08;;;;;;;3.38;2.92;;;24.00;73.00;;;;;;5041027;28;20439;-65
2021/08/22 10:16:33;;;;;;;3.88;3.05;;;24.00;72.50;;;;;;5049746;28;20559;-64
2021/08/22 10:19:03;;;;;;;4.05;3.25;;;24.00;72.20;;;;;;5047303;28;20045;-63
2021/08/22 10:21:28;;;;;;;8.38;3.20;;;24.00;73.40;;;;;;5046240;28;20051;-64
2021/08/22 10:23:57;;;;;;;4.95;3.30;;;24.00;73.60;;;;;;5041065;28;20429;-64
2021/08/22 10:26:57;;;;;;;5.45;3.53;;;24.00;73.80;;;;;;5044561;28;20036;-65
2021/08/22 10:29:34;;;;;;;4.30;3.10;;;24.00;73.10;;;;;;5004226;28;20363;-64
2021/08/22 10:32:01;;;;;;;5.40;3.28;;;24.00;73.10;;;;;;5040854;28;20082;-64
2021/08/22 10:34:28;;;;;;;5.05;3.55;;;24.00;73.40;;;;;;5047984;28;20541;-64
2021/08/22 10:36:54;;;;;;;4.43;2.88;;;23.90;73.50;;;;;;5050016;28;20452;-64
2021/08/22 10:39:23;;;;;;;4.88;2.78;;;23.90;72.90;;;;;;5045761;28;20095;-64
2021/08/22 10:41:54;;;;;;;5.00;3.03;;;23.90;73.30;;;;;;5031636;28;20037;-63
2021/08/22 10:44:39;;;;;;;3.45;2.72;;;23.90;73.30;;;;;;5049612;28;20516;-65
2021/08/22 10:47:13;;;;;;;3.88;2.90;;;24.00;73.80;;;;;;5031117;28;20037;-64
2021/08/22 10:49:53;;;;;;;9.23;3.55;;;24.00;73.40;;;;;;5033264;28;20520;-64
2021/08/22 10:52:29;;;;;;;4.45;3.10;;;24.00;73.00;;;;;;5036293;28;20381;-63
2021/08/22 10:55:16;;;;;;;4.60;3.30;;;24.00;72.70;;;;;;5033520;28;20485;-64
2021/08/22 10:57:44;;;;;;;5.97;4.10;;;24.00;73.60;;;;;;5043205;28;20393;-65
2021/08/22 11:00:30;;;;;;;5.10;3.45;;;24.00;73.40;;;;;;5036439;28;20587;-66
2021/08/22 11:03:01;;;;;;;4.93;3.58;;;24.00;73.60;;;;;;5038533;28;20393;-66
2021/08/22 11:05:32;;;;;;;5.82;4.07;;;24.00;74.30;;;;;;5036024;28;20533;-67
2021/08/22 11:08:20;;;;;;;4.70;3.53;;;23.90;74.70;;;;;;5043221;28;20378;-65
2021/08/22 11:11:00;;;;;;;6.03;4.50;;;23.90;76.00;;;;;;5037547;28;20497;-65
2021/08/22 11:13:27;;;;;;;5.00;3.53;;;23.80;76.00;;;;;;5031240;28;20041;-65
2021/08/22 11:15:53;;;;;;;6.38;4.35;;;23.70;76.80;;;;;;5041796;28;20022;-76
2021/08/22 11:18:19;;;;;;;7.00;4.32;;;23.70;78.10;;;;;;5032240;28;22453;-76
2021/08/22 11:20:45;;;;;;;7.70;4.88;;;23.60;79.00;;;;;;5038979;28;20516;-73
2021/08/22 11:23:18;;;;;;;8.52;4.82;;;23.60;80.90;;;;;;5037682;28;20044;-76
2021/08/22 11:25:47;;;;;;;8.82;4.55;;;23.50;82.80;;;;;;5036512;28;20029;-77
2021/08/22 11:28:18;;;;;;;7.38;4.82;;;23.20;84.60;;;;;;5041841;28;20354;-75
2021/08/22 11:30:45;;;;;;;5.93;5.05;;;23.10;85.80;;;;;;5038493;28;20029;-77
2021/08/22 11:33:12;;;;;;;7.78;4.78;;;23.00;86.40;;;;;;5043905;28;20079;-77
2021/08/22 11:35:39;;;;;;;9.13;4.75;;;22.80;86.10;;;;;;5044555;28;20029;-77
2021/08/22 11:38:05;;;;;;;7.45;5.40;;;22.70;86.90;;;;;;5041480;28;20033;-75
2021/08/22 11:40:32;;;;;;;9.30;5.32;;;22.60;87.20;;;;;;5040126;28;20112;-72
2021/08/22 11:43:00;;;;;;;7.25;4.70;;;22.50;88.10;;;;;;5040730;28;20443;-76
2021/08/22 11:45:28;;;;;;;9.07;5.32;;;22.40;88.10;;;;;;5015476;28;20033;-74
2021/08/22 11:47:55;;;;;;;9.60;5.70;;;22.30;88.70;;;;;;5046504;28;20056;-74
2021/08/22 11:50:23;;;;;;;8.15;6.22;;;22.20;90.00;;;;;;5046626;28;20049;-73
2021/08/22 11:52:53;;;;;;;8.25;5.95;;;22.20;90.70;;;;;;5046233;28;20116;-73
2021/08/22 11:55:20;;;;;;;12.57;6.72;;;22.20;91.00;;;;;;5043067;28;20029;-75
2021/08/22 11:57:46;;;;;;;10.75;6.85;;;22.10;91.10;;;;;;5046068;28;20363;-75
2021/08/22 12:00:16;;;;;;;8.50;5.38;;;22.10;91.10;;;;;;5036947;28;20032;-75
2021/08/22 12:02:59;;;;;;;7.15;5.47;;;22.10;91.70;;;;;;5044978;28;20482;-75
2021/08/22 12:05:27;;;;;;;8.23;6.50;;;22.10;91.80;;;;;;5028445;28;20032;-75
2021/08/22 12:08:08;;;;;;;9.73;6.30;;;22.10;91.90;;;;;;5050543;28;20033;-77
2021/08/22 12:10:38;;;;;;;7.03;5.88;;;22.10;92.30;;;;;;5042934;28;20040;-72
2021/08/22 12:13:16;;;;;;;8.00;6.07;;;22.10;92.70;;;;;;5050694;28;20029;-73
2021/08/22 12:15:41;;;;;;;8.27;6.63;;;22.20;92.60;;;;;;5041569;28;20196;-74
2021/08/22 12:18:13;;;;;;;8.23;5.82;;;22.30;92.70;;;;;;5044758;28;20324;-73
2021/08/22 12:20:39;;;;;;;6.22;5.18;;;22.30;92.70;;;;;;5044872;28;20106;-73
2021/08/22 12:23:07;;;;;;;7.55;5.60;;;22.40;92.50;;;;;;5041596;28;20065;-74
2021/08/22 12:25:36;;;;;;;8.25;5.53;;;22.40;92.60;;;;;;5041841;28;20043;-73
2021/08/22 12:28:28;;;;;;;8.52;5.80;;;22.40;92.40;;;;;;5041595;28;20124;-73
2021/08/22 12:31:06;;;;;;;7.53;5.53;;;22.30;92.10;;;;;;5042507;28;20031;-74
2021/08/22 12:33:33;;;;;;;9.25;5.95;;;22.20;92.60;;;;;;5043900;28;20036;-73
2021/08/22 12:36:03;;;;;;;6.57;5.60;;;22.10;92.70;;;;;;5048197;28;20032;-73
2021/08/22 12:38:45;;;;;;;11.00;5.38;;;22.00;92.90;;;;;;5045902;28;20087;-73
2021/08/22 12:41:33;;;;;;;9.43;5.88;;;22.00;93.20;;;;;;5045406;28;20098;-72
2021/08/22 12:44:02;;;;;;;9.63;6.38;;;22.10;93.00;;;;;;5037687;28;20029;-74
2021/08/22 12:46:29;;;;;;;8.63;7.00;;;22.10;93.50;;;;;;5027642;28;20025;-74
2021/08/22 12:48:55;;;;;;;9.15;6.75;;;22.00;93.20;;;;;;5040145;28;20029;-77
2021/08/22 12:51:22;;;;;;;8.68;6.45;;;21.90;93.20;;;;;;5033767;28;20519;-76
2021/08/22 12:53:49;;;;;;;8.30;6.53;;;21.80;93.40;;;;;;5047304;28;20069;-70
2021/08/22 12:56:14;;;;;;;8.23;7.15;;;21.70;93.60;;;;;;5021841;28;20021;-72
2021/08/22 12:58:40;;;;;;;8.65;7.28;;;21.60;93.70;;;;;;5040546;28;20419;-77